createdAt,value
2023-01-29T00:01:36.503Z,53.88
2023-01-29T00:04:03.651Z,54.09
2023-01-29T00:06:30.799Z,53.47
2023-01-29T00:08:58.026Z,53.50
2023-01-29T00:11:25.016Z,53.45
2023-01-29T00:13:52.984Z,53.48
2023-01-29T00:16:19.940Z,54.27
2023-01-29T00:18:46.895Z,54.10
2023-01-29T00:21:16.464Z,53.20
2023-01-29T00:23:43.575Z,52.75
2023-01-29T00:26:10.779Z,52.81
2023-01-29T00:28:41.313Z,53.30
2023-01-29T00:31:13.721Z,53.84
2023-01-29T00:33:41.238Z,52.88
2023-01-29T00:36:11.345Z,53.58
2023-01-29T00:38:39.465Z,53.16
2023-01-29T00:41:11.797Z,53.61
2023-01-29T00:43:38.743Z,53.87
2023-01-29T00:46:05.609Z,53.88
2023-01-29T00:48:32.891Z,53.63
2023-01-29T00:50:59.798Z,53.61
2023-01-29T00:53:27.469Z,54.78
2023-01-29T00:55:54.348Z,55.46
2023-01-29T00:58:21.299Z,54.57
2023-01-29T01:00:51.873Z,55.11
2023-01-29T01:03:18.830Z,54.60
2023-01-29T01:05:47.359Z,55.32
2023-01-29T01:08:14.545Z,55.35
2023-01-29T01:10:42.464Z,54.77
2023-01-29T01:13:09.423Z,54.62
2023-01-29T01:15:39.200Z,55.03
2023-01-29T01:18:06.540Z,56.05
2023-01-29T01:20:36.075Z,55.99
2023-01-29T01:23:04.018Z,56.09
2023-01-29T01:25:31.160Z,55.16
2023-01-29T01:30:26.095Z,54.36
2023-01-29T01:32:53.435Z,55.05
2023-01-29T01:35:20.610Z,54.24
2023-01-29T01:37:47.615Z,54.80
2023-01-29T01:40:22.905Z,54.53
2023-01-29T01:42:52.733Z,54.75
2023-01-29T01:45:30.461Z,54.55
2023-01-29T01:48:11.357Z,54.48
2023-01-29T01:50:50.498Z,54.37
2023-01-29T01:53:23.973Z,53.84
2023-01-29T01:55:56.167Z,53.90
2023-01-29T01:58:28.233Z,55.10
2023-01-29T02:00:55.903Z,54.69
2023-01-29T02:03:25.289Z,54.20
2023-01-29T02:05:55.622Z,55.17
2023-01-29T02:08:38.051Z,54.27
2023-01-29T02:11:06.273Z,54.40
2023-01-29T02:13:33.335Z,54.40
2023-01-29T02:16:00.360Z,54.78
2023-01-29T02:18:27.251Z,54.17
2023-01-29T02:21:36.768Z,54.76
2023-01-29T02:24:45.084Z,54.61
2023-01-29T02:27:39.639Z,54.33
2023-01-29T02:30:24.549Z,54.41
2023-01-29T02:33:11.253Z,54.01
2023-01-29T02:35:46.544Z,54.51
2023-01-29T02:38:19.886Z,54.44
2023-01-29T02:41:02.139Z,54.42
2023-01-29T02:43:53.111Z,53.75
2023-01-29T02:46:51.132Z,53.71
2023-01-29T02:49:40.856Z,53.50
2023-01-29T02:52:40.689Z,53.88
2023-01-29T02:55:18.279Z,54.13
2023-01-29T02:57:49.381Z,53.66
2023-01-29T03:00:21.236Z,53.32
2023-01-29T03:02:59.459Z,53.25
2023-01-29T03:05:33.825Z,52.87
2023-01-29T03:08:07.934Z,52.66
2023-01-29T03:10:43.954Z,53.38
2023-01-29T03:13:52.895Z,54.47
2023-01-29T03:16:34.321Z,54.26
2023-01-29T03:19:15.510Z,54.83
2023-01-29T03:21:47.727Z,53.96
2023-01-29T03:24:23.361Z,52.93
2023-01-29T03:26:53.106Z,53.06
2023-01-29T03:29:21.231Z,53.75
2023-01-29T03:31:49.466Z,53.26
2023-01-29T03:34:21.605Z,54.01
2023-01-29T03:36:59.891Z,54.67
2023-01-29T03:39:29.124Z,54.19
2023-01-29T03:42:35.041Z,53.88
2023-01-29T03:45:36.093Z,54.10
2023-01-29T03:48:27.436Z,54.19
2023-01-29T03:51:09.647Z,53.40
2023-01-29T03:53:52.834Z,53.51
2023-01-29T03:56:25.829Z,53.50
2023-01-29T03:59:04.865Z,53.75
2023-01-29T04:01:57.987Z,53.36
2023-01-29T04:04:29.320Z,53.00
2023-01-29T04:07:04.351Z,54.05
2023-01-29T04:09:57.686Z,53.61
2023-01-29T04:12:29.698Z,52.84
2023-01-29T04:15:01.550Z,52.76
2023-01-29T04:17:37.494Z,52.65
2023-01-29T04:20:12.654Z,52.35
2023-01-29T04:22:46.544Z,52.65
2023-01-29T04:25:17.324Z,53.07
2023-01-29T04:28:09.230Z,53.12
2023-01-29T04:30:42.715Z,52.54
2023-01-29T04:33:09.684Z,52.80
2023-01-29T04:36:01.576Z,52.94
2023-01-29T04:38:34.804Z,52.26
2023-01-29T04:41:26.047Z,52.16
2023-01-29T04:43:55.767Z,51.75
2023-01-29T04:46:51.655Z,51.75
2023-01-29T04:49:27.818Z,52.91
2023-01-29T04:52:05.972Z,52.41
2023-01-29T04:54:38.759Z,52.04
2023-01-29T04:57:08.536Z,51.58
2023-01-29T04:59:57.666Z,51.88
2023-01-29T05:02:26.866Z,51.41
2023-01-29T05:04:55.446Z,51.46
2023-01-29T05:07:26.026Z,51.92
2023-01-29T05:09:53.374Z,51.37
2023-01-29T05:12:21.454Z,51.27
2023-01-29T05:14:51.097Z,51.28
2023-01-29T05:17:20.657Z,51.15
2023-01-29T05:19:47.994Z,50.93
2023-01-29T05:22:18.051Z,50.28
2023-01-29T05:24:44.902Z,50.62
2023-01-29T05:27:20.202Z,50.57
2023-01-29T05:29:47.888Z,50.85
2023-01-29T05:32:15.466Z,50.79
2023-01-29T05:34:42.525Z,50.40
2023-01-29T05:37:10.525Z,50.98
2023-01-29T05:39:37.486Z,50.61
2023-01-29T05:42:04.934Z,50.48
2023-01-29T05:44:31.893Z,50.92
2023-01-29T05:46:58.765Z,50.55
2023-01-29T05:49:25.776Z,50.53
2023-01-29T05:51:52.918Z,50.08
2023-01-29T05:54:19.998Z,50.55
2023-01-29T05:56:47.014Z,50.32
2023-01-29T05:59:15.888Z,49.30
2023-01-29T06:01:42.850Z,49.45
2023-01-29T06:04:09.828Z,49.75
2023-01-29T06:06:36.767Z,49.85
2023-01-29T06:09:03.902Z,49.65
2023-01-29T06:11:30.813Z,49.40
2023-01-29T06:13:58.068Z,49.01
2023-01-29T06:16:25.804Z,49.25
2023-01-29T06:18:52.805Z,48.89
2023-01-29T06:21:20.229Z,48.83
2023-01-29T06:23:47.328Z,48.80
2023-01-29T06:26:16.055Z,48.26
2023-01-29T06:28:43.311Z,48.37
2023-01-29T06:31:27.447Z,47.55
2023-01-29T06:33:58.722Z,46.99
2023-01-29T06:36:25.655Z,47.07
2023-01-29T06:38:52.560Z,46.94
2023-01-29T06:41:20.231Z,46.31
2023-01-29T06:43:47.330Z,46.76
2023-01-29T06:46:14.621Z,46.91
2023-01-29T06:48:41.839Z,46.93
2023-01-29T06:51:10.981Z,46.33
2023-01-29T06:53:39.523Z,46.92
2023-01-29T06:56:07.660Z,46.73
2023-01-29T06:58:37.618Z,46.60
2023-01-29T07:01:29.043Z,46.93
2023-01-29T07:04:00.315Z,47.62
2023-01-29T07:06:28.974Z,46.42
2023-01-29T07:08:56.163Z,47.26
2023-01-29T07:11:23.113Z,45.88
2023-01-29T07:13:50.041Z,46.34
2023-01-29T07:16:16.977Z,45.93
2023-01-29T07:18:43.990Z,45.66
2023-01-29T07:21:10.942Z,46.18
2023-01-29T07:23:37.970Z,46.32
2023-01-29T07:26:06.638Z,45.63
2023-01-29T07:28:38.327Z,45.62
2023-01-29T07:31:06.090Z,45.18
2023-01-29T07:33:33.265Z,45.24
2023-01-29T07:36:00.428Z,45.08
2023-01-29T07:38:27.524Z,45.32
2023-01-29T07:40:54.561Z,45.58
2023-01-29T07:43:21.486Z,45.13
2023-01-29T07:45:48.491Z,44.90
2023-01-29T07:48:15.385Z,45.50
2023-01-29T07:50:50.204Z,45.13
2023-01-29T07:53:17.173Z,44.96
2023-01-29T07:55:45.215Z,45.53
2023-01-29T07:58:12.443Z,45.75
2023-01-29T08:00:40.045Z,46.48
2023-01-29T08:03:15.041Z,45.56
2023-01-29T08:05:47.711Z,45.73
2023-01-29T08:08:16.875Z,46.27
2023-01-29T08:10:43.835Z,46.43
2023-01-29T08:13:10.864Z,45.99
2023-01-29T08:15:39.200Z,45.28
2023-01-29T08:18:06.765Z,45.32
2023-01-29T08:20:33.734Z,45.88
2023-01-29T08:23:07.728Z,45.53
2023-01-29T08:25:36.414Z,45.79
2023-01-29T08:28:04.746Z,45.28
2023-01-29T08:30:34.279Z,47.11
2023-01-29T08:33:01.697Z,46.02
2023-01-29T08:35:29.195Z,45.53
2023-01-29T08:37:58.117Z,44.75
2023-01-29T08:40:26.013Z,45.22
2023-01-29T08:42:52.939Z,45.59
2023-01-29T08:45:19.839Z,45.68
2023-01-29T08:47:50.585Z,46.11
2023-01-29T08:50:18.343Z,46.21
2023-01-29T08:52:46.051Z,47.01
2023-01-29T08:55:13.576Z,46.32
2023-01-29T08:57:40.610Z,46.37
2023-01-29T09:00:09.674Z,47.20
2023-01-29T09:02:38.702Z,46.23
2023-01-29T09:05:06.326Z,47.08
2023-01-29T09:07:33.372Z,46.92
2023-01-29T09:10:05.879Z,46.51
2023-01-29T09:12:32.796Z,45.78
2023-01-29T09:14:59.703Z,45.11
2023-01-29T09:17:26.701Z,45.16
2023-01-29T09:19:53.795Z,45.48
2023-01-29T09:22:20.947Z,45.68
2023-01-29T09:24:47.966Z,45.58
2023-01-29T09:27:14.970Z,46.64
2023-01-29T09:29:41.913Z,46.69
2023-01-29T09:32:08.845Z,46.30
2023-01-29T09:34:37.145Z,46.54
2023-01-29T09:37:04.336Z,46.20
2023-01-29T09:39:31.220Z,45.99
2023-01-29T09:42:13.376Z,45.76
2023-01-29T09:45:07.003Z,45.47
2023-01-29T09:47:36.421Z,45.46
2023-01-29T09:50:09.385Z,45.66
2023-01-29T09:52:41.369Z,45.90
2023-01-29T09:55:30.987Z,45.97
2023-01-29T09:58:24.713Z,46.83
2023-01-29T10:01:33.616Z,46.12
2023-01-29T10:04:19.248Z,46.73
2023-01-29T10:06:58.260Z,46.83
2023-01-29T10:10:01.720Z,45.89
2023-01-29T10:12:50.135Z,45.82
2023-01-29T10:15:50.324Z,47.04
2023-01-29T10:19:05.064Z,46.87
2023-01-29T10:22:05.062Z,46.66
2023-01-29T10:24:41.788Z,46.91
2023-01-29T10:27:17.171Z,47.42
2023-01-29T10:29:47.058Z,47.68
2023-01-29T10:32:19.613Z,47.32
2023-01-29T10:34:57.781Z,46.81
2023-01-29T10:37:40.935Z,46.84
2023-01-29T10:40:34.087Z,46.16
2023-01-29T10:43:10.111Z,46.30
2023-01-29T10:45:53.887Z,46.53
2023-01-29T10:48:39.604Z,46.38
2023-01-29T10:51:19.377Z,47.01
2023-01-29T10:54:04.625Z,46.66
2023-01-29T10:56:47.867Z,47.36
2023-01-29T10:59:33.463Z,46.32
2023-01-29T11:02:01.131Z,46.97
2023-01-29T11:04:31.619Z,46.04
2023-01-29T11:07:00.393Z,46.27
2023-01-29T11:09:35.980Z,46.63
2023-01-29T11:12:11.436Z,47.06
2023-01-29T11:14:53.526Z,46.58
2023-01-29T11:17:23.459Z,47.05
2023-01-29T11:19:52.224Z,47.00
2023-01-29T11:22:22.079Z,47.11
2023-01-29T11:25:17.602Z,47.27
2023-01-29T11:27:45.338Z,47.45
2023-01-29T11:30:26.868Z,47.94
2023-01-29T11:33:05.491Z,47.55
2023-01-29T11:35:32.565Z,48.14
2023-01-29T11:38:27.792Z,48.61
2023-01-29T11:41:16.357Z,48.99
2023-01-29T11:43:43.542Z,49.47
2023-01-29T11:46:15.981Z,49.42
2023-01-29T11:48:51.714Z,48.96
2023-01-29T11:51:26.234Z,48.63
2023-01-29T11:54:05.589Z,49.12
2023-01-29T11:56:45.393Z,49.13
2023-01-29T11:59:31.055Z,49.33
2023-01-29T12:02:06.985Z,50.07
2023-01-29T12:04:34.171Z,49.76
2023-01-29T12:07:01.120Z,49.57
2023-01-29T12:09:31.270Z,50.79
2023-01-29T12:12:39.483Z,49.84
2023-01-29T12:15:23.039Z,49.80
2023-01-29T12:18:12.619Z,50.62
2023-01-29T12:20:46.322Z,50.16
2023-01-29T12:23:35.798Z,49.75
2023-01-29T12:26:16.282Z,50.21
2023-01-29T12:29:15.666Z,49.90
2023-01-29T12:32:16.309Z,48.88
2023-01-29T12:34:52.605Z,49.76
2023-01-29T12:37:23.087Z,49.46
2023-01-29T12:39:52.114Z,49.04
2023-01-29T12:42:22.080Z,49.28
2023-01-29T12:44:52.880Z,49.52
2023-01-29T12:47:31.712Z,49.62
2023-01-29T12:50:06.456Z,49.39
2023-01-29T12:52:43.769Z,49.75
2023-01-29T12:55:20.249Z,50.41
2023-01-29T12:57:57.115Z,50.21
2023-01-29T13:00:28.866Z,49.89
2023-01-29T13:03:00.977Z,50.42
2023-01-29T13:05:46.260Z,50.83
2023-01-29T13:08:19.219Z,51.87
2023-01-29T13:10:50.020Z,50.48
2023-01-29T13:13:36.026Z,52.45
2023-01-29T13:16:10.089Z,52.54
2023-01-29T13:19:03.298Z,52.47
2023-01-29T13:21:40.120Z,51.81
2023-01-29T13:24:20.397Z,52.75
2023-01-29T13:26:49.159Z,52.63
2023-01-29T13:29:28.984Z,53.16
2023-01-29T13:32:01.600Z,53.31
2023-01-29T13:34:37.204Z,53.22
2023-01-29T13:37:11.744Z,53.12
2023-01-29T13:39:46.708Z,55.01
2023-01-29T13:42:21.413Z,54.25
2023-01-29T13:44:51.409Z,54.65
2023-01-29T13:47:26.690Z,54.97
2023-01-29T13:50:24.219Z,54.54
2023-01-29T13:52:57.898Z,54.25
2023-01-29T13:55:40.235Z,54.70
2023-01-29T13:58:15.379Z,54.39
2023-01-29T14:00:42.324Z,54.65
2023-01-29T14:03:09.159Z,54.10
2023-01-29T14:05:59.855Z,54.62
2023-01-29T14:08:35.607Z,54.53
2023-01-29T14:11:17.878Z,53.65
2023-01-29T14:13:49.882Z,54.45
2023-01-29T14:16:17.059Z,54.68
2023-01-29T14:19:04.909Z,53.85
2023-01-29T14:21:36.925Z,54.04
2023-01-29T14:24:19.629Z,54.25
2023-01-29T14:26:49.552Z,54.06
2023-01-29T14:29:34.824Z,54.48
2023-01-29T14:32:23.083Z,54.50
2023-01-29T14:34:54.652Z,54.05
2023-01-29T14:37:32.289Z,54.23
2023-01-29T14:40:15.621Z,54.34
2023-01-29T14:42:59.799Z,54.46
2023-01-29T14:45:28.658Z,55.01
2023-01-29T14:48:03.742Z,54.86
2023-01-29T14:50:30.859Z,55.51
2023-01-29T14:53:18.247Z,55.60
2023-01-29T14:56:00.554Z,55.52
2023-01-29T14:58:52.015Z,55.44
2023-01-29T15:01:27.892Z,55.59
2023-01-29T15:04:22.491Z,55.20
2023-01-29T15:07:01.829Z,55.37
2023-01-29T15:09:37.807Z,55.74
2023-01-29T15:12:25.829Z,56.29
2023-01-29T15:15:07.199Z,56.41
2023-01-29T15:18:06.273Z,55.67
2023-01-29T15:20:34.553Z,54.78
2023-01-29T15:23:02.612Z,55.29
2023-01-29T15:25:46.665Z,54.94
2023-01-29T15:28:13.680Z,54.55
2023-01-29T15:30:40.753Z,55.04
2023-01-29T15:33:10.781Z,55.05
2023-01-29T15:35:41.646Z,55.03
2023-01-29T15:38:27.277Z,54.53
2023-01-29T15:40:55.914Z,54.70
2023-01-29T15:43:26.996Z,55.18
2023-01-29T15:45:59.721Z,54.31
2023-01-29T15:48:39.663Z,53.86
2023-01-29T15:51:16.947Z,53.88
2023-01-29T15:53:55.217Z,53.99
2023-01-29T15:56:38.724Z,54.00
2023-01-29T15:59:09.807Z,54.43
2023-01-29T16:01:37.074Z,54.47
2023-01-29T16:04:04.654Z,53.19
2023-01-29T16:06:38.931Z,53.49
2023-01-29T16:09:07.485Z,53.33
2023-01-29T16:11:37.794Z,53.47
2023-01-29T16:14:06.516Z,53.21
2023-01-29T16:16:33.424Z,52.57
2023-01-29T16:19:01.489Z,53.00
2023-01-29T16:21:37.033Z,52.90
2023-01-29T16:24:12.626Z,53.30
2023-01-29T16:26:45.524Z,53.51
2023-01-29T16:29:20.639Z,53.23
2023-01-29T16:31:50.662Z,52.65
2023-01-29T16:34:40.165Z,53.42
2023-01-29T16:37:20.139Z,53.02
2023-01-29T16:39:49.188Z,52.76
2023-01-29T16:42:16.029Z,52.92
2023-01-29T16:45:03.406Z,52.94
2023-01-29T16:47:36.326Z,53.20
2023-01-29T16:50:03.256Z,52.87
2023-01-29T16:52:34.431Z,52.67
2023-01-29T16:55:13.677Z,52.90
2023-01-29T16:57:41.840Z,52.60
2023-01-29T17:00:20.096Z,53.86
2023-01-29T17:02:50.734Z,53.31
2023-01-29T17:05:29.413Z,52.92
2023-01-29T17:07:58.049Z,52.77
2023-01-29T17:10:26.699Z,52.10
2023-01-29T17:12:58.543Z,53.11
2023-01-29T17:15:43.846Z,52.67
2023-01-29T17:18:24.427Z,52.45
2023-01-29T17:20:52.139Z,53.16
2023-01-29T17:23:19.479Z,52.78
2023-01-29T17:25:47.761Z,53.44
2023-01-29T17:28:17.476Z,52.87
2023-01-29T17:30:50.684Z,53.70
2023-01-29T17:33:20.986Z,54.86
2023-01-29T17:35:50.118Z,54.02
2023-01-29T17:38:26.034Z,53.34
2023-01-29T17:41:02.296Z,53.25
2023-01-29T17:43:30.345Z,53.28
2023-01-29T17:45:57.301Z,52.77
2023-01-29T17:48:27.805Z,53.13
2023-01-29T17:50:57.783Z,53.20
2023-01-29T17:53:26.560Z,53.60
2023-01-29T17:55:57.786Z,53.59
2023-01-29T17:58:28.055Z,53.54
2023-01-29T18:00:56.513Z,54.10
2023-01-29T18:03:23.552Z,54.10
2023-01-29T18:05:51.111Z,54.18
2023-01-29T18:08:32.066Z,54.55
2023-01-29T18:11:00.566Z,54.48
2023-01-29T18:13:28.311Z,54.30
2023-01-29T18:15:55.378Z,54.37
2023-01-29T18:18:24.183Z,54.53
2023-01-29T18:20:51.833Z,54.33
2023-01-29T18:23:19.193Z,54.19
2023-01-29T18:25:46.245Z,54.89
2023-01-29T18:28:16.445Z,54.84
2023-01-29T18:30:44.863Z,54.91
2023-01-29T18:33:11.899Z,54.88
2023-01-29T18:35:39.050Z,55.23
2023-01-29T18:38:05.959Z,55.15
2023-01-29T18:40:34.268Z,54.45
2023-01-29T18:43:01.177Z,54.08
2023-01-29T18:45:28.781Z,53.84
2023-01-29T18:47:56.092Z,54.68
2023-01-29T18:50:23.499Z,54.67
2023-01-29T18:52:50.703Z,54.99
2023-01-29T18:55:18.142Z,53.92
2023-01-29T18:58:26.269Z,53.58
2023-01-29T19:00:32.722Z,54.52
2023-01-29T19:02:59.618Z,54.58
2023-01-29T19:05:26.712Z,53.95
2023-01-29T19:07:53.678Z,53.75
2023-01-29T19:10:20.562Z,54.42
2023-01-29T19:12:47.513Z,53.25
2023-01-29T19:15:14.597Z,54.03
2023-01-29T19:17:41.653Z,54.07
2023-01-29T19:20:09.253Z,53.42
2023-01-29T19:22:38.599Z,53.44
2023-01-29T19:25:05.952Z,53.71
2023-01-29T19:27:32.804Z,53.58
2023-01-29T19:29:59.873Z,54.10
2023-01-29T19:32:26.974Z,53.73
2023-01-29T19:34:53.880Z,53.63
2023-01-29T19:37:22.235Z,53.41
2023-01-29T19:39:49.330Z,54.29
2023-01-29T19:42:16.493Z,54.49
2023-01-29T19:44:43.643Z,54.13
2023-01-29T19:47:10.704Z,54.45
2023-01-29T19:49:38.879Z,54.06
2023-01-29T19:52:06.856Z,54.53
2023-01-29T19:54:33.794Z,53.96
2023-01-29T19:57:00.734Z,54.32
2023-01-29T19:59:29.502Z,53.13
2023-01-29T20:01:56.421Z,53.36
2023-01-29T20:04:23.382Z,53.48
2023-01-29T20:06:50.287Z,53.93
2023-01-29T20:09:17.316Z,53.79
2023-01-29T20:11:44.995Z,53.98
2023-01-29T20:14:11.934Z,53.70
2023-01-29T20:16:40.007Z,53.12
2023-01-29T20:19:13.738Z,53.71
2023-01-29T20:21:45.388Z,54.21
2023-01-29T20:24:13.533Z,54.16
2023-01-29T20:26:40.683Z,53.89
2023-01-29T20:29:07.621Z,53.86
2023-01-29T20:31:34.475Z,53.89
2023-01-29T20:34:01.441Z,54.69
2023-01-29T20:36:28.355Z,54.64
2023-01-29T20:38:55.280Z,54.14
2023-01-29T20:41:22.093Z,54.33
2023-01-29T20:43:49.120Z,53.92
2023-01-29T20:46:16.070Z,54.65
2023-01-29T20:48:44.766Z,54.79
2023-01-29T20:51:16.827Z,54.17
2023-01-29T20:53:45.895Z,54.91
2023-01-29T20:56:14.760Z,53.58
2023-01-29T20:58:43.523Z,54.28
2023-01-29T21:01:17.605Z,54.40
2023-01-29T21:03:45.340Z,54.04
2023-01-29T21:06:13.547Z,53.89
2023-01-29T21:08:41.138Z,53.77
2023-01-29T21:11:09.678Z,54.48
2023-01-29T21:13:37.443Z,54.24
2023-01-29T21:16:04.670Z,54.52
2023-01-29T21:18:31.687Z,54.87
2023-01-29T21:20:58.543Z,54.42
2023-01-29T21:23:25.687Z,54.43
2023-01-29T21:25:52.624Z,54.32
2023-01-29T21:28:19.575Z,53.89
2023-01-29T21:30:46.457Z,53.54
2023-01-29T21:33:13.596Z,54.41
2023-01-29T21:35:40.475Z,54.43
2023-01-29T21:38:07.331Z,54.15
2023-01-29T21:40:34.302Z,54.71
2023-01-29T21:43:01.264Z,53.98
2023-01-29T21:45:28.177Z,53.65
2023-01-29T21:47:55.119Z,54.21
2023-01-29T21:50:22.047Z,54.37
2023-01-29T21:52:49.049Z,54.25
2023-01-29T21:55:15.965Z,54.52
2023-01-29T21:57:42.780Z,54.44
2023-01-29T22:00:10.748Z,54.05
2023-01-29T22:02:37.685Z,54.55
2023-01-29T22:05:18.038Z,55.02
2023-01-29T22:07:49.583Z,54.87
2023-01-29T22:10:18.393Z,55.14
2023-01-29T22:12:45.900Z,55.22
2023-01-29T22:15:13.500Z,54.69
2023-01-29T22:17:40.725Z,55.39
2023-01-29T22:20:13.379Z,55.17
2023-01-29T22:22:40.650Z,55.43
2023-01-29T22:25:08.203Z,55.34
2023-01-29T22:27:35.207Z,55.23
2023-01-29T22:30:02.164Z,55.71
2023-01-29T22:32:29.184Z,55.76
2023-01-29T22:34:56.164Z,55.88
2023-01-29T22:37:23.139Z,55.51
2023-01-29T22:39:50.028Z,55.63
2023-01-29T22:42:19.320Z,55.65
2023-01-29T22:44:47.582Z,55.99
2023-01-29T22:47:14.424Z,56.10
2023-01-29T22:49:41.286Z,55.66
2023-01-29T22:52:08.285Z,55.65
2023-01-29T22:54:35.423Z,56.14
2023-01-29T22:57:02.742Z,56.18
2023-01-29T22:59:30.247Z,56.14
2023-01-29T23:01:57.940Z,56.79
2023-01-29T23:04:24.881Z,56.20
2023-01-29T23:06:51.803Z,56.71
2023-01-29T23:09:18.737Z,56.08
2023-01-29T23:11:45.789Z,56.11
2023-01-29T23:14:12.640Z,56.45
2023-01-29T23:16:39.652Z,56.32
2023-01-29T23:19:07.688Z,56.30
2023-01-29T23:21:37.317Z,56.27
2023-01-29T23:24:04.607Z,56.26
2023-01-29T23:26:31.611Z,56.98
2023-01-29T23:28:59.211Z,56.22
2023-01-29T23:31:26.832Z,56.02
2023-01-29T23:33:53.740Z,55.97
2023-01-29T23:36:21.652Z,55.97
2023-01-29T23:38:48.750Z,56.02
2023-01-29T23:41:15.743Z,56.01
2023-01-29T23:43:43.754Z,56.11
2023-01-29T23:46:12.063Z,56.21
2023-01-29T23:48:38.958Z,56.22
2023-01-29T23:51:06.227Z,56.44
2023-01-29T23:53:33.164Z,55.30
2023-01-29T23:56:03.814Z,55.17
2023-01-29T23:58:32.065Z,55.12
